X  Κλείσε Στοιχεία αεροπορικών μετεωρολογικών δεδομένων METAR     LYNI Nis Airport
θερμοκρασία
2°C θερμοκρασία
0°C Σημείο δρόσου
87% Υγρασία



Ανεμος
12 MPH
19 KM/H
5 M/S
10 KTS



310°
VD
Τρέχουσες συνθήκες

ελαφρός χιόνι ελαφρός χιόνι
πίεση 1018.92 (hPa) - 30.09 (inHg)
Ορατότητα 6.2 (μίλι) - 10 (km)
Aεροδρόμιο
Κωδικός αεροδρομίου LYNI

Τοποθεσία: Nis Airport
Απόσταση: 63 (mi)

Metar:
LYNI 311730Z 31010KT 9999 -SN FEW013 SCT020 BKN033 02/00 Q1019 NOSIG

ώρα: 31-01-2023 18:30 CET